Portada
METAR-TAF:

METAR-TAF

Aeroports :

Logronyo, Espanya

latitud: 42-27N, longitud: 002-20W, altitud: 353 m

Observació

L'informe es va fer fa 6 hores i 40 minuts, a les 05:00 UTC
Vent 6 kt del Oest
Temperatura 15°C
Humitat 88%
Pressió 1019 hPa
Visibilitat 10 km o més
sense núvols per sota de 1500 mi sense presència de cumulonimbus.

METAR: LELO 210500Z 28006KT CAVOK 15/13 Q1019

Hora: 13:40 (11:40 UTC)

Pronòstic

L'informe es va fer fa 6 hores i 40 minuts, a les 05:00 UTC
Pronòstic vàlid del 21 a les 06 UTC al 21 a les 15 UTC
Vent 6 kt del Oest
Visibilitat 10 km o més
sense núvols per sota de 1500 mi sense presència de cumulonimbus.

TAF: LELO 210500Z 2106/2115 28006KT CAVOK

Observacions i pronòstics meteorològics de més de 4000 aeroports (METAR i TAF).

Les estacions disponibles són els punts grocs i vermells al mapa.

Posi el ratolí al punt desitjat per veure el nom de l'estació.

Feu clic per veure les observacions i els pronòstics meteorològics.

Per canviar el mapa: feu clic els botons verds amb una creu de color negre per apropar; al botó verd amb un guió per allunyar la imatge; o en les fletxes verdes per a mapes adjacents.


METAR-TAF: